createdAt,value
2022-12-29T00:05:53.837Z,436
2022-12-29T00:25:53.880Z,430
2022-12-29T00:45:53.864Z,444
2022-12-29T01:05:54.049Z,441
2022-12-29T01:25:53.903Z,433
2022-12-29T01:45:53.998Z,445
2022-12-29T02:25:53.975Z,448
2022-12-29T02:45:54.037Z,443
2022-12-29T03:05:54.032Z,453
2022-12-29T03:25:54.043Z,441
2022-12-29T03:45:54.094Z,444
2022-12-29T04:05:54.123Z,449
2022-12-29T04:25:53.627Z,456
2022-12-29T04:45:54.139Z,447
2022-12-29T05:05:54.170Z,439
2022-12-29T05:25:54.224Z,438
2022-12-29T05:45:54.224Z,441
2022-12-29T06:05:54.250Z,437
2022-12-29T06:25:53.781Z,439
2022-12-29T06:45:54.307Z,442
2022-12-29T07:05:54.322Z,433
2022-12-29T07:25:54.307Z,434
2022-12-29T07:45:54.349Z,428
2022-12-29T08:05:54.451Z,431
2022-12-29T08:25:54.396Z,432
2022-12-29T08:45:54.443Z,429
2022-12-29T09:05:54.428Z,418
2022-12-29T09:25:54.432Z,420
2022-12-29T09:45:54.459Z,421
2022-12-29T10:05:54.521Z,425
2022-12-29T10:25:54.541Z,421
2022-12-29T10:45:54.587Z,416
2022-12-29T11:05:54.662Z,415
2022-12-29T11:25:54.576Z,414
2022-12-29T11:45:54.728Z,409
2022-12-29T12:05:54.761Z,410
2022-12-29T12:25:54.664Z,409
2022-12-29T12:45:54.711Z,410
2022-12-29T13:05:54.684Z,409
2022-12-29T13:25:54.854Z,406
2022-12-29T13:45:54.729Z,403
2022-12-29T14:05:54.783Z,407
2022-12-29T14:25:54.792Z,412
2022-12-29T14:45:54.802Z,407
2022-12-29T15:05:54.821Z,408
2022-12-29T15:25:54.868Z,405
2022-12-29T15:45:54.978Z,404
2022-12-29T16:05:54.909Z,404
2022-12-29T16:25:54.893Z,400
2022-12-29T16:45:55.002Z,402
2022-12-29T17:25:54.991Z,398
2022-12-29T17:45:55.077Z,398
2022-12-29T18:25:55.072Z,394
2022-12-29T18:45:55.070Z,397
2022-12-29T19:05:55.084Z,409
2022-12-29T19:25:55.145Z,406
2022-12-29T19:45:55.141Z,403
2022-12-29T20:05:55.167Z,401
2022-12-29T20:25:55.228Z,401
2022-12-29T20:45:55.292Z,398
2022-12-29T21:05:55.229Z,402
2022-12-29T21:25:55.299Z,396
2022-12-29T21:45:55.370Z,402
2022-12-29T22:05:55.366Z,402
2022-12-29T22:25:55.496Z,400
2022-12-29T22:45:55.387Z,396
2022-12-29T23:05:55.404Z,392
2022-12-29T23:25:55.459Z,399
2022-12-29T23:45:55.464Z,397
